Time;durP1;ratioP1;P1;durP2;ratioP2;P2;SDS_P1;SDS_P2;PMS_P1;PMS_P2;Temp;Humidity;BMP_temperature;BMP_pressure;BME280_temperature;BME280_humidity;BME280_pressure;Samples;Min_cycle;Max_cycle;Signal;HPM_P1;HPM_P2
2022/03/29 00:01:59;;;;;;;11.80;7.32;;;;;;;13.02;36.67;94044.41;4960130;28;20058;-75
2022/03/29 00:04:25;;;;;;;10.40;7.07;;;;;;;12.98;36.34;94032.00;4965435;28;20050;-76
2022/03/29 00:06:53;;;;;;;14.40;6.68;;;;;;;12.96;36.68;94040.34;4957410;28;21100;-76
2022/03/29 00:09:20;;;;;;;12.73;6.70;;;;;;;12.96;36.63;94020.91;4958756;28;20055;-74
2022/03/29 00:11:45;;;;;;;13.48;6.70;;;;;;;12.87;36.49;94000.34;4961983;28;20042;-75
2022/03/29 00:14:12;;;;;;;11.48;6.85;;;;;;;13.00;36.38;94024.47;4964782;28;20665;-76
2022/03/29 00:16:38;;;;;;;13.80;6.30;;;;;;;12.86;36.43;94009.44;4956797;28;20046;-75
2022/03/29 00:19:04;;;;;;;9.85;6.78;;;;;;;12.84;36.31;93995.66;4996228;28;20046;-76
2022/03/29 00:21:29;;;;;;;10.73;6.45;;;;;;;12.82;36.05;93997.06;4962271;28;20037;-76
2022/03/29 00:23:55;;;;;;;11.05;6.50;;;;;;;12.72;36.36;94008.91;4962132;28;20081;-75
2022/03/29 00:26:20;;;;;;;10.15;6.95;;;;;;;12.77;36.33;94005.25;4963255;28;20050;-76
2022/03/29 00:28:46;;;;;;;12.25;6.93;;;;;;;12.74;36.21;93985.34;4960341;28;20131;-75
2022/03/29 00:31:12;;;;;;;10.40;5.72;;;;;;;12.87;35.94;94004.91;4968679;28;20034;-75
2022/03/29 00:33:38;;;;;;;14.68;6.68;;;;;;;12.84;35.87;94006.34;4964626;28;20037;-74
2022/03/29 00:36:04;;;;;;;12.45;6.55;;;;;;;12.77;36.11;93992.72;4960410;28;20197;-75
2022/03/29 00:38:30;;;;;;;12.60;6.30;;;;;;;12.82;36.10;94003.19;4967381;28;20169;-75
2022/03/29 00:40:55;;;;;;;10.75;6.32;;;;;;;12.77;36.19;94003.38;4960233;28;20041;-75
2022/03/29 00:43:21;;;;;;;11.32;6.88;;;;;;;12.57;36.25;93987.28;4966765;28;20062;-76
2022/03/29 00:45:46;;;;;;;14.38;6.90;;;;;;;12.54;36.72;94004.72;4968718;28;20043;-74
2022/03/29 00:48:13;;;;;;;10.52;5.90;;;;;;;12.43;36.92;93992.81;4966580;28;20030;-76
2022/03/29 00:50:40;;;;;;;10.35;6.63;;;;;;;12.29;36.99;93977.03;4965975;28;20042;-75
2022/03/29 00:53:08;;;;;;;10.32;6.20;;;;;;;12.41;36.57;93987.03;4969112;28;20711;-75
2022/03/29 00:55:34;;;;;;;10.85;6.20;;;;;;;12.36;36.57;93979.22;4969829;28;20049;-75
2022/03/29 00:58:02;;;;;;;15.52;6.72;;;;;;;12.20;37.04;93951.50;4970953;28;20034;-75
2022/03/29 01:00:29;;;;;;;12.65;6.80;;;;;;;11.96;37.28;93931.50;4968279;28;20027;-75
2022/03/29 01:02:55;;;;;;;11.75;6.78;;;;;;;12.30;36.82;93956.50;4965530;28;20490;-75
2022/03/29 01:05:20;;;;;;;11.38;7.07;;;;;;;12.23;36.64;93954.31;4965064;28;20041;-75
2022/03/29 01:07:46;;;;;;;11.00;6.57;;;;;;;12.37;36.74;93970.13;4966713;28;20598;-74
2022/03/29 01:10:11;;;;;;;10.35;6.78;;;;;;;12.40;36.54;93958.81;4968256;28;20446;-77
2022/03/29 01:12:39;;;;;;;11.23;6.30;;;;;;;12.54;36.49;93964.69;4963713;28;20026;-76
2022/03/29 01:15:08;;;;;;;9.82;6.38;;;;;;;12.37;36.53;93940.78;4973928;28;20025;-75
2022/03/29 01:17:41;;;;;;;10.57;6.57;;;;;;;12.23;36.64;93916.19;4968726;28;20034;-75
2022/03/29 01:20:13;;;;;;;13.50;6.03;;;;;;;12.38;36.93;93958.31;5004077;28;20035;-76
2022/03/29 01:22:44;;;;;;;10.38;5.85;;;;;;;12.37;36.68;93951.44;4972951;28;20042;-75
2022/03/29 01:25:14;;;;;;;11.48;5.70;;;;;;;12.16;36.71;93926.59;4970511;28;20046;-75
2022/03/29 01:27:41;;;;;;;10.05;6.10;;;;;;;12.21;37.19;93948.53;4976634;28;20018;-75
2022/03/29 01:30:07;;;;;;;8.18;6.00;;;;;;;11.79;37.39;93912.91;4969533;28;21149;-76
2022/03/29 01:32:35;;;;;;;14.48;6.53;;;;;;;11.70;37.65;93914.81;4967319;28;20042;-75
2022/03/29 01:35:02;;;;;;;9.48;6.40;;;;;;;11.69;38.08;93929.22;4972754;28;20038;-75
2022/03/29 01:37:28;;;;;;;11.35;6.30;;;;;;;11.61;37.85;93927.34;4961716;28;20051;-75
2022/03/29 01:39:53;;;;;;;13.93;6.95;;;;;;;11.39;38.18;93899.03;4971195;28;20070;-74
2022/03/29 01:42:19;;;;;;;10.95;6.53;;;;;;;11.38;38.44;93917.97;4972123;28;20481;-75
2022/03/29 01:44:45;;;;;;;11.70;6.95;;;;;;;11.22;38.83;93917.66;4967429;28;20030;-74
2022/03/29 01:47:10;;;;;;;16.08;7.38;;;;;;;11.10;38.94;93898.88;4970297;28;20133;-75
2022/03/29 01:49:37;;;;;;;10.00;6.72;;;;;;;11.22;39.08;93914.22;4965726;28;20045;-75
2022/03/29 01:52:03;;;;;;;11.82;7.57;;;;;;;10.90;39.27;93891.53;4972178;28;20564;-75
2022/03/29 01:54:30;;;;;;;11.38;6.78;;;;;;;11.01;39.57;93914.84;4957847;28;20044;-75
2022/03/29 01:56:55;;;;;;;12.80;6.68;;;;;;;10.82;39.79;93911.69;4967532;28;20101;-75
2022/03/29 01:59:21;;;;;;;9.75;6.35;;;;;;;10.81;39.70;93904.78;4963431;28;20046;-75
2022/03/29 02:01:48;;;;;;;11.77;7.15;;;;;;;10.73;40.16;93909.03;4971513;28;20125;-75
2022/03/29 02:04:14;;;;;;;12.80;6.93;;;;;;;10.51;40.35;93876.47;4963357;28;20039;-75
2022/03/29 02:06:40;;;;;;;14.52;7.22;;;;;;;10.67;40.26;93898.84;4968694;28;20109;-75
2022/03/29 02:09:07;;;;;;;10.60;6.43;;;;;;;10.65;40.31;93901.03;4966229;28;20049;-75
2022/03/29 02:11:33;;;;;;;11.10;6.93;;;;;;;10.52;40.45;93867.38;4970591;28;20726;-74
2022/03/29 02:13:58;;;;;;;12.38;7.65;;;;;;;10.76;40.11;93890.88;4967059;28;20030;-75
2022/03/29 02:16:24;;;;;;;12.18;7.82;;;;;;;10.84;40.15;93880.25;4963786;28;21080;-75
2022/03/29 02:18:49;;;;;;;9.68;6.18;;;;;;;10.90;39.94;93864.91;4974601;28;20037;-75
2022/03/29 02:21:18;;;;;;;14.88;7.13;;;;;;;10.98;39.72;93864.91;4967880;28;20053;-76
2022/03/29 02:23:44;;;;;;;14.68;7.25;;;;;;;10.92;39.56;93862.69;4962057;28;20026;-75
2022/03/29 02:26:10;;;;;;;13.10;6.60;;;;;;;10.79;39.77;93835.19;4968600;28;20516;-75
2022/03/29 02:28:38;;;;;;;12.52;7.72;;;;;;;11.02;39.69;93871.16;4967418;28;20401;-75
2022/03/29 02:31:03;;;;;;;9.85;6.65;;;;;;;10.86;40.04;93851.44;4969282;28;20081;-75
2022/03/29 02:33:29;;;;;;;11.27;6.90;;;;;;;10.88;39.96;93848.47;4967465;28;20280;-75
2022/03/29 02:35:54;;;;;;;11.18;7.15;;;;;;;10.60;40.20;93855.97;4959955;28;20029;-74
2022/03/29 02:38:20;;;;;;;15.90;7.13;;;;;;;10.60;40.32;93853.31;4967383;28;20037;-77
2022/03/29 02:40:46;;;;;;;12.77;7.45;;;;;;;10.60;40.54;93874.59;4953196;28;21124;-74
2022/03/29 02:43:12;;;;;;;14.38;6.90;;;;;;;10.35;40.49;93848.72;4958888;28;20086;-75
2022/03/29 02:45:38;;;;;;;14.20;7.75;;;;;;;10.67;40.14;93872.25;4961246;28;20102;-76
2022/03/29 02:48:03;;;;;;;11.88;6.72;;;;;;;10.53;40.31;93851.09;4965650;28;20437;-75
2022/03/29 02:50:29;;;;;;;11.07;7.13;;;;;;;10.64;40.52;93864.91;4961746;28;20062;-75
2022/03/29 02:52:57;;;;;;;9.20;6.53;;;;;;;10.75;40.33;93874.13;4958914;28;20046;-74
2022/03/29 02:55:25;;;;;;;13.55;6.90;;;;;;;10.80;40.11;93868.66;4960805;28;20035;-76
2022/03/29 02:57:51;;;;;;;11.13;7.30;;;;;;;10.74;40.15;93867.25;4966361;28;20148;-76
2022/03/29 03:00:17;;;;;;;13.07;7.55;;;;;;;10.74;40.19;93872.56;4961163;28;20224;-75
2022/03/29 03:02:50;;;;;;;16.17;7.53;;;;;;;10.79;39.92;93869.75;4966085;28;20101;-75
2022/03/29 03:05:17;;;;;;;13.65;7.13;;;;;;;10.85;39.92;93868.50;4984721;28;20531;-75
2022/03/29 03:07:44;;;;;;;11.65;7.20;;;;;;;10.85;39.67;93867.72;4962902;28;20138;-75
2022/03/29 03:10:11;;;;;;;9.75;6.50;;;;;;;10.74;40.02;93857.41;4996468;28;20039;-75
2022/03/29 03:12:39;;;;;;;12.45;6.65;;;;;;;10.48;39.86;93837.19;4967410;28;20164;-75
2022/03/29 03:15:06;;;;;;;12.63;6.38;;;;;;;10.58;40.07;93842.19;4963919;28;20026;-77
2022/03/29 03:17:32;;;;;;;10.73;7.45;;;;;;;10.57;39.95;93840.63;4967728;28;20362;-75
2022/03/29 03:19:57;;;;;;;13.68;6.43;;;;;;;10.76;39.91;93857.06;4971537;28;20505;-75
2022/03/29 03:22:23;;;;;;;8.95;5.60;;;;;;;10.80;39.78;93860.69;4958041;28;20022;-75
2022/03/29 03:24:49;;;;;;;8.63;6.28;;;;;;;10.70;39.50;93845.03;4966291;28;20038;-76
2022/03/29 03:27:16;;;;;;;11.77;6.43;;;;;;;10.88;39.44;93849.25;4964367;28;20030;-75
2022/03/29 03:29:42;;;;;;;9.90;5.60;;;;;;;10.85;39.37;93863.19;4966493;28;20117;-76
2022/03/29 03:32:08;;;;;;;12.25;6.82;;;;;;;10.66;39.55;93847.50;4962594;28;20646;-75
2022/03/29 03:34:34;;;;;;;14.32;6.80;;;;;;;10.57;39.92;93843.28;4967828;28;20038;-74
2022/03/29 03:37:02;;;;;;;12.95;6.93;;;;;;;10.49;39.94;93817.47;4966918;28;20046;-76
2022/03/29 03:39:28;;;;;;;10.98;6.55;;;;;;;10.70;39.90;93853.78;4960930;28;20033;-75
2022/03/29 03:41:54;;;;;;;11.00;7.60;;;;;;;10.65;39.86;93855.81;4966745;28;20030;-76
2022/03/29 03:44:22;;;;;;;11.10;6.90;;;;;;;10.68;39.69;93847.22;4964494;28;20027;-75
2022/03/29 03:46:48;;;;;;;8.43;6.20;;;;;;;10.71;39.55;93854.56;4967442;28;20121;-75
2022/03/29 03:49:13;;;;;;;12.30;6.43;;;;;;;10.59;39.88;93838.44;4963304;28;20050;-76
2022/03/29 03:51:39;;;;;;;14.48;7.32;;;;;;;10.70;39.70;93855.66;4963451;28;20038;-75
2022/03/29 03:54:04;;;;;;;13.07;6.47;;;;;;;10.62;39.75;93840.47;4969465;28;20584;-75
2022/03/29 03:56:30;;;;;;;10.95;6.45;;;;;;;10.53;39.89;93829.84;4972934;28;20077;-76
2022/03/29 03:58:55;;;;;;;12.52;6.65;;;;;;;10.52;39.37;93822.16;4968124;28;20097;-75
2022/03/29 04:01:20;;;;;;;11.13;6.22;;;;;;;10.59;39.56;93828.59;4995855;28;20129;-75
2022/03/29 04:03:46;;;;;;;13.00;7.28;;;;;;;10.56;39.70;93833.75;4970936;28;20093;-75
2022/03/29 04:06:11;;;;;;;12.32;7.05;;;;;;;10.68;39.66;93847.22;4964738;28;20026;-75
2022/03/29 04:08:37;;;;;;;14.35;7.25;;;;;;;10.62;39.73;93832.50;4968750;28;20739;-76
2022/03/29 04:11:02;;;;;;;11.35;6.43;;;;;;;10.56;40.07;93855.03;4963618;28;21508;-75
2022/03/29 04:13:28;;;;;;;11.93;8.07;;;;;;;10.41;40.05;93823.56;4962418;28;20101;-75
2022/03/29 04:15:53;;;;;;;11.90;7.63;;;;;;;10.41;40.23;93827.03;4965488;28;20042;-75
2022/03/29 04:18:19;;;;;;;10.90;6.72;;;;;;;10.45;40.12;93837.81;4969245;28;20038;-75
2022/03/29 04:20:45;;;;;;;13.15;6.82;;;;;;;10.32;40.52;93840.25;4965948;28;20045;-76
2022/03/29 04:23:10;;;;;;;12.73;7.30;;;;;;;10.22;40.57;93837.88;4963473;28;20042;-75
2022/03/29 04:25:36;;;;;;;9.90;6.55;;;;;;;10.35;40.86;93856.69;4977428;28;20096;-76
2022/03/29 04:28:01;;;;;;;10.43;6.57;;;;;;;10.46;40.55;93852.69;4961448;28;20038;-75
2022/03/29 04:30:27;;;;;;;10.90;6.60;;;;;;;10.35;40.62;93840.72;4967858;28;20097;-75
2022/03/29 04:32:54;;;;;;;12.82;7.57;;;;;;;10.27;40.68;93818.34;4966392;28;20033;-75
2022/03/29 04:35:19;;;;;;;12.80;7.53;;;;;;;10.30;40.56;93834.47;4965067;28;20038;-75
2022/03/29 04:37:45;;;;;;;11.48;7.38;;;;;;;10.29;40.78;93824.94;4966647;28;20046;-75
2022/03/29 04:40:12;;;;;;;14.77;7.95;;;;;;;10.42;40.67;93849.03;4965714;28;20042;-76
2022/03/29 04:42:49;;;;;;;14.07;7.68;;;;;;;10.38;40.86;93837.47;4965351;28;20080;-75
2022/03/29 04:45:16;;;;;;;17.45;8.43;;;;;;;10.33;41.14;93849.78;4966117;28;20026;-75
2022/03/29 04:47:43;;;;;;;13.18;9.10;;;;;;;10.22;41.21;93847.75;4962937;28;20066;-75
2022/03/29 04:50:10;;;;;;;15.45;7.88;;;;;;;10.11;41.69;93827.88;4964843;28;20966;-76
2022/03/29 04:52:36;;;;;;;10.57;7.50;;;;;;;10.12;41.59;93824.88;4963169;28;20569;-74
2022/03/29 04:55:02;;;;;;;11.43;7.68;;;;;;;10.26;41.56;93846.03;4964571;28;20042;-74
2022/03/29 04:57:28;;;;;;;12.95;8.23;;;;;;;10.17;41.31;93822.06;4966175;28;20027;-76
2022/03/29 04:59:53;;;;;;;12.20;7.25;;;;;;;10.32;41.32;93840.25;4965467;28;20030;-75
2022/03/29 05:02:19;;;;;;;14.00;9.20;;;;;;;10.25;41.64;93833.84;4962715;28;20030;-75
2022/03/29 05:04:45;;;;;;;19.63;7.90;;;;;;;10.47;41.37;93851.56;4967089;28;20520;-76
2022/03/29 05:07:10;;;;;;;16.55;9.75;;;;;;;10.36;41.57;93844.97;4979435;28;20081;-77
2022/03/29 05:09:36;;;;;;;19.80;8.75;;;;;;;10.36;41.65;93826.34;4961112;28;20050;-75
2022/03/29 05:12:01;;;;;;;19.17;10.27;;;;;;;10.60;41.42;93850.66;4969189;28;20047;-75
2022/03/29 05:14:27;;;;;;;16.65;9.75;;;;;;;10.61;41.91;93836.28;4963339;28;20062;-75
2022/03/29 05:16:52;;;;;;;23.65;11.95;;;;;;;10.68;41.69;93825.94;4968510;28;20046;-75
2022/03/29 05:19:17;;;;;;;15.85;9.63;;;;;;;10.97;41.15;93842.03;4968010;28;20066;-75
2022/03/29 05:21:43;;;;;;;16.98;10.90;;;;;;;11.00;41.10;93844.06;4981435;28;20523;-75
2022/03/29 05:24:09;;;;;;;15.05;9.88;;;;;;;10.24;42.62;93817.09;4967161;28;20046;-76
2022/03/29 05:26:35;;;;;;;22.17;12.70;;;;;;;8.97;45.31;93827.63;4968128;28;21354;-75
2022/03/29 05:29:02;;;;;;;21.63;11.68;;;;;;;9.61;45.02;93840.66;4968534;28;20043;-76
2022/03/29 05:31:28;;;;;;;27.60;12.43;;;;;;;10.20;43.46;93837.44;4967517;28;20060;-75
2022/03/29 05:33:53;;;;;;;26.17;12.32;;;;;;;10.48;43.20;93843.28;4972923;28;20034;-75
2022/03/29 05:36:19;;;;;;;22.20;14.52;;;;;;;10.49;42.68;93833.44;4969882;28;21051;-75
2022/03/29 05:38:49;;;;;;;22.60;13.70;;;;;;;10.43;42.66;93847.97;4966437;28;20080;-77
2022/03/29 05:41:19;;;;;;;21.40;12.93;;;;;;;10.43;43.40;93847.97;4983929;28;20966;-75
2022/03/29 05:43:45;;;;;;;26.08;13.23;;;;;;;10.77;42.46;93845.34;4970305;28;20580;-76
2022/03/29 05:48:59;;;;;;;29.60;15.73;;;;;;;9.41;45.69;93848.06;4964772;28;20085;-76
2022/03/29 05:51:26;;;;;;;25.77;15.80;;;;;;;10.23;44.35;93849.28;4964029;28;20030;-76
2022/03/29 05:53:56;;;;;;;30.73;16.42;;;;;;;10.36;43.50;93831.66;4969697;28;20181;-76
2022/03/29 05:56:22;;;;;;;24.75;15.75;;;;;;;9.93;44.32;93828.91;4966416;28;20067;-74
2022/03/29 05:58:48;;;;;;;27.67;15.23;;;;;;;10.12;44.38;93840.81;4970435;28;20129;-75
2022/03/29 06:01:14;;;;;;;25.15;14.77;;;;;;;9.49;44.50;93795.31;4966981;28;20100;-76
2022/03/29 06:03:40;;;;;;;25.23;15.25;;;;;;;9.71;45.34;93845.69;4968572;28;20034;-75
2022/03/29 06:06:06;;;;;;;29.42;14.55;;;;;;;9.74;45.10;93839.75;4968354;28;20018;-75
2022/03/29 06:08:32;;;;;;;16.02;10.82;;;;;;;9.74;45.04;93837.09;4966491;28;20506;-76
2022/03/29 06:10:58;;;;;;;24.23;12.82;;;;;;;9.68;45.08;93830.38;4968620;28;20127;-75
2022/03/29 06:13:25;;;;;;;25.40;12.93;;;;;;;9.85;45.31;93841.06;4966877;28;20380;-75
2022/03/29 06:15:51;;;;;;;41.22;26.08;;;;;;;9.36;46.13;93842.88;4969672;28;20061;-75
2022/03/29 06:18:17;;;;;;;28.65;19.73;;;;;;;9.38;46.49;93835.41;4971069;28;20719;-74
2022/03/29 06:20:42;;;;;;;26.85;14.45;;;;;;;9.27;45.95;93820.81;4965281;28;20094;-75
2022/03/29 06:23:07;;;;;;;29.40;15.07;;;;;;;9.36;46.11;93805.72;4968491;28;20043;-75
2022/03/29 06:25:34;;;;;;;38.00;15.65;;;;;;;9.63;45.50;93838.50;4965274;28;20643;-75
2022/03/29 06:28:00;;;;;;;28.85;14.77;;;;;;;9.76;45.61;93837.59;4968009;28;20490;-75
2022/03/29 06:30:25;;;;;;;28.20;13.55;;;;;;;9.78;45.32;93817.59;4968978;28;20114;-74
2022/03/29 06:32:52;;;;;;;29.02;14.25;;;;;;;9.95;44.73;93832.81;4960168;28;22053;-75
2022/03/29 06:35:22;;;;;;;24.48;12.60;;;;;;;9.76;44.74;93837.59;4986429;28;20045;-76
2022/03/29 06:37:53;;;;;;;28.27;12.75;;;;;;;9.85;44.52;93830.44;4966730;28;20137;-75
2022/03/29 06:40:21;;;;;;;18.13;11.13;;;;;;;10.06;44.02;93804.88;4966203;28;20133;-75
2022/03/29 06:42:48;;;;;;;20.27;12.38;;;;;;;9.84;43.87;93826.22;4963444;28;20114;-75
2022/03/29 06:45:13;;;;;;;19.48;11.27;;;;;;;9.78;44.49;93793.69;4967804;28;20033;-76
2022/03/29 06:47:39;;;;;;;18.55;11.75;;;;;;;10.00;44.21;93824.72;4971973;28;20038;-75
2022/03/29 06:50:05;;;;;;;19.73;11.63;;;;;;;9.65;43.49;93767.25;4967641;28;20034;-76
2022/03/29 06:52:49;;;;;;;18.85;10.90;;;;;;;9.86;43.94;93832.00;4969288;28;20140;-75
2022/03/29 06:55:18;;;;;;;18.83;11.65;;;;;;;9.82;43.92;93826.53;4979549;28;20066;-76
2022/03/29 06:57:43;;;;;;;20.20;11.27;;;;;;;9.89;43.51;93826.06;4965234;28;20098;-74
2022/03/29 07:00:10;;;;;;;23.80;12.07;;;;;;;9.70;43.98;93814.91;4967318;28;20023;-75
2022/03/29 07:02:36;;;;;;;20.95;10.80;;;;;;;10.11;44.12;93823.34;4967261;28;20034;-76
2022/03/29 07:05:03;;;;;;;18.63;10.55;;;;;;;10.44;43.21;93814.97;4963410;28;20044;-75
2022/03/29 07:07:28;;;;;;;19.45;10.70;;;;;;;10.41;43.01;93807.63;4964607;28;20089;-77
2022/03/29 07:12:58;;;;;;;20.38;11.10;;;;;;;10.11;43.45;93822.56;4960221;28;20216;-75
2022/03/29 07:15:30;;;;;;;15.88;10.85;;;;;;;10.54;43.07;93819.97;4963537;28;20029;-75
2022/03/29 07:18:07;;;;;;;17.30;10.65;;;;;;;10.97;42.24;93812.78;4983312;28;20105;-76
2022/03/29 07:20:33;;;;;;;24.27;11.27;;;;;;;11.05;41.67;93814.63;4977758;28;20041;-76
2022/03/29 07:22:59;;;;;;;19.90;10.63;;;;;;;11.39;40.92;93821.00;4961135;28;20039;-75
2022/03/29 07:25:27;;;;;;;16.58;10.75;;;;;;;11.21;41.68;93811.47;4962551;28;20536;-75
2022/03/29 07:27:53;;;;;;;19.80;10.60;;;;;;;11.22;40.86;93805.84;4959051;28;20034;-75
2022/03/29 07:30:20;;;;;;;22.60;10.40;;;;;;;10.97;41.33;93794.16;4965362;28;20094;-75
2022/03/29 07:32:48;;;;;;;17.65;10.13;;;;;;;11.43;40.55;93796.09;4954863;28;20050;-75
2022/03/29 07:35:15;;;;;;;20.75;9.07;;;;;;;11.14;41.19;93786.16;4995814;28;20513;-75
2022/03/29 07:37:41;;;;;;;20.48;10.55;;;;;;;11.19;41.40;93801.16;4959786;28;20133;-75
2022/03/29 07:40:09;;;;;;;19.38;10.55;;;;;;;11.33;40.78;93787.66;4962830;28;20165;-75
2022/03/29 07:42:37;;;;;;;27.17;11.30;;;;;;;11.29;40.42;93792.84;4959899;28;20026;-75
2022/03/29 07:45:05;;;;;;;18.70;10.63;;;;;;;11.35;40.08;93791.56;4970117;28;20023;-75
2022/03/29 07:47:31;;;;;;;19.50;10.02;;;;;;;11.18;40.12;93775.63;4961050;28;20031;-74
2022/03/29 07:49:57;;;;;;;14.80;9.35;;;;;;;11.52;40.43;93796.88;4965106;28;20106;-75
2022/03/29 07:52:22;;;;;;;13.75;8.45;;;;;;;11.55;39.55;93787.44;4967776;28;20445;-75
2022/03/29 07:54:48;;;;;;;16.73;10.80;;;;;;;11.59;39.29;93785.69;4965250;28;20486;-75
2022/03/29 07:57:13;;;;;;;19.17;9.60;;;;;;;11.34;39.87;93781.25;4966876;28;20328;-75
2022/03/29 07:59:38;;;;;;;13.52;8.77;;;;;;;11.39;39.63;93759.78;4965531;28;20050;-75
2022/03/29 08:02:05;;;;;;;18.08;9.57;;;;;;;11.67;39.40;93786.78;4971217;28;20161;-74
2022/03/29 08:04:31;;;;;;;14.00;8.82;;;;;;;11.45;39.22;93758.47;4961686;28;20591;-74
2022/03/29 08:06:57;;;;;;;16.33;7.60;;;;;;;11.46;39.04;93766.16;4978314;28;20610;-75
2022/03/29 08:09:22;;;;;;;16.90;8.20;;;;;;;11.75;38.85;93775.31;4958402;28;20047;-76
2022/03/29 08:11:48;;;;;;;16.63;8.20;;;;;;;11.57;38.47;93745.31;4961943;28;20485;-75
2022/03/29 08:14:14;;;;;;;16.00;8.02;;;;;;;11.58;38.53;93781.50;4962599;28;20057;-75
2022/03/29 08:16:41;;;;;;;18.38;7.70;;;;;;;11.50;38.15;93771.63;4960468;28;20509;-75
2022/03/29 08:19:07;;;;;;;14.75;6.80;;;;;;;12.07;37.96;93768.56;4963952;28;20774;-75
2022/03/29 08:21:51;;;;;;;15.20;6.95;;;;;;;12.39;37.49;93775.88;4978487;28;20685;-75
2022/03/29 08:24:23;;;;;;;16.60;5.78;;;;;;;12.58;35.29;93751.41;4961745;28;20038;-75
2022/03/29 08:26:51;;;;;;;14.70;6.57;;;;;;;12.35;36.80;93753.63;4961990;28;20046;-75
2022/03/29 08:29:21;;;;;;;11.65;5.45;;;;;;;12.34;36.20;93755.50;4977883;28;20041;-75
2022/03/29 08:31:49;;;;;;;13.00;5.85;;;;;;;12.44;34.99;93757.78;4965390;28;20599;-75
2022/03/29 08:34:16;;;;;;;10.02;6.30;;;;;;;12.28;36.48;93742.69;4993153;28;20868;-76
2022/03/29 08:36:42;;;;;;;8.95;5.65;;;;;;;12.43;35.82;93745.56;4981410;28;20049;-74
2022/03/29 08:39:08;;;;;;;10.98;5.97;;;;;;;12.67;35.31;93739.59;4977291;28;20974;-75
2022/03/29 08:42:07;;;;;;;9.18;6.05;;;;;;;12.83;35.53;93731.75;4966395;28;20034;-76
2022/03/29 08:44:34;;;;;;;10.80;5.50;;;;;;;12.83;35.26;93708.50;4965363;28;20042;-75
2022/03/29 08:47:00;;;;;;;11.20;6.35;;;;;;;13.03;35.20;93722.91;4961464;28;20035;-75
2022/03/29 08:49:26;;;;;;;11.25;5.53;;;;;;;13.15;34.59;93698.16;4961219;28;20043;-75
2022/03/29 08:51:53;;;;;;;10.10;5.88;;;;;;;13.40;34.31;93691.69;4964101;28;20102;-75
2022/03/29 08:54:21;;;;;;;10.00;5.95;;;;;;;13.57;33.63;93718.22;4966463;28;20026;-76
2022/03/29 08:56:47;;;;;;;16.77;6.10;;;;;;;13.47;33.71;93707.97;4967035;28;20097;-75
2022/03/29 08:59:12;;;;;;;7.35;5.28;;;;;;;13.89;33.21;93697.06;4964794;28;20133;-75
2022/03/29 09:01:38;;;;;;;10.25;5.97;;;;;;;13.63;33.36;93655.47;4968004;28;20030;-75
2022/03/29 09:04:15;;;;;;;11.75;5.95;;;;;;;13.79;33.60;93700.22;4964048;28;20034;-75
2022/03/29 09:06:56;;;;;;;13.20;6.70;;;;;;;13.71;33.48;93691.97;4983336;28;20129;-74
2022/03/29 09:09:44;;;;;;;14.65;6.57;;;;;;;13.42;33.83;93641.41;4967390;28;21304;-74
2022/03/29 09:12:16;;;;;;;12.73;6.30;;;;;;;13.73;32.94;93668.38;4964972;28;20042;-75
2022/03/29 09:14:54;;;;;;;14.38;5.10;;;;;;;13.95;33.08;93685.03;4981043;28;20560;-75
2022/03/29 09:17:33;;;;;;;12.43;5.30;;;;;;;14.01;32.88;93678.34;4966289;28;20628;-74
2022/03/29 09:20:04;;;;;;;7.97;4.78;;;;;;;14.00;33.55;93682.91;4964539;28;20038;-74
2022/03/29 09:22:34;;;;;;;7.82;4.63;;;;;;;13.97;32.80;93677.47;4959333;28;20104;-74
2022/03/29 09:25:00;;;;;;;10.90;5.78;;;;;;;14.08;32.77;93671.28;4957233;28;20073;-74
2022/03/29 09:27:26;;;;;;;11.98;5.00;;;;;;;14.07;31.99;93651.03;4955678;28;20402;-76
2022/03/29 09:30:08;;;;;;;7.53;3.55;;;;;;;13.90;31.76;93651.28;4956384;28;20331;-75
2022/03/29 09:33:05;;;;;;;11.23;4.50;;;;;;;14.07;32.36;93664.41;4961067;28;20652;-75
2022/03/29 09:35:32;;;;;;;14.40;4.10;;;;;;;13.99;30.71;93648.47;4959050;28;20045;-75
2022/03/29 09:37:59;;;;;;;9.73;5.45;;;;;;;14.31;30.88;93647.50;4964992;28;20043;-75
2022/03/29 09:40:45;;;;;;;6.63;4.43;;;;;;;14.48;29.92;93644.53;4958804;28;20526;-75
2022/03/29 09:43:11;;;;;;;10.93;4.72;;;;;;;14.74;30.49;93649.47;4961848;28;20042;-75
2022/03/29 09:45:42;;;;;;;6.90;3.72;;;;;;;14.97;30.33;93652.34;4961773;28;20036;-75
2022/03/29 09:48:35;;;;;;;14.52;4.03;;;;;;;14.87;30.27;93647.50;4960980;28;20046;-75
2022/03/29 09:51:10;;;;;;;13.18;4.25;;;;;;;15.03;30.92;93648.28;4958704;28;20069;-75
2022/03/29 09:53:56;;;;;;;10.98;4.80;;;;;;;14.84;31.25;93630.22;4977202;28;20045;-76
2022/03/29 09:56:30;;;;;;;9.60;4.57;;;;;;;14.89;31.06;93631.88;4960972;28;20141;-75
2022/03/29 09:59:17;;;;;;;12.10;5.32;;;;;;;14.79;31.06;93635.06;4958596;28;20374;-76
2022/03/29 10:01:50;;;;;;;13.25;4.57;;;;;;;14.73;30.70;93631.84;4966332;28;20038;-75
2022/03/29 10:04:16;;;;;;;8.55;4.75;;;;;;;14.65;32.75;93621.31;4960637;28;20259;-76
2022/03/29 10:06:43;;;;;;;8.65;4.80;;;;;;;14.65;32.08;93618.63;4966715;28;20026;-75
2022/03/29 10:09:26;;;;;;;10.07;5.47;;;;;;;14.77;32.40;93626.56;4961794;28;20513;-74
2022/03/29 10:11:55;;;;;;;6.70;4.30;;;;;;;14.65;32.20;93621.31;4966702;28;22110;-75
2022/03/29 10:14:22;;;;;;;7.53;4.53;;;;;;;14.20;32.67;93563.50;4962023;28;20295;-75
2022/03/29 10:16:49;;;;;;;7.93;5.70;;;;;;;14.63;32.73;93615.50;4956574;28;20312;-75
2022/03/29 10:19:17;;;;;;;9.35;6.07;;;;;;;14.41;32.50;93593.53;4964102;28;20592;-76
2022/03/29 10:21:44;;;;;;;12.93;5.30;;;;;;;14.53;31.99;93609.53;4963060;28;20047;-75
2022/03/29 10:24:13;;;;;;;14.80;5.43;;;;;;;14.14;32.32;93570.22;4963679;28;20034;-75
2022/03/29 10:26:41;;;;;;;13.00;4.55;;;;;;;14.05;32.39;93564.25;4954451;28;20039;-75
2022/03/29 10:29:08;;;;;;;7.38;4.38;;;;;;;14.28;31.98;93610.72;4962030;28;20125;-75
2022/03/29 10:31:36;;;;;;;14.55;5.30;;;;;;;14.23;32.46;93596.84;4963518;28;20900;-75
2022/03/29 10:34:18;;;;;;;11.38;5.47;;;;;;;14.38;32.71;93599.53;4966064;28;20062;-76
2022/03/29 10:37:03;;;;;;;6.68;4.28;;;;;;;14.63;32.31;93602.91;4964781;28;20041;-74
2022/03/29 10:39:56;;;;;;;15.55;4.60;;;;;;;14.84;31.65;93608.03;4963814;28;20042;-75
2022/03/29 10:42:37;;;;;;;13.98;5.82;;;;;;;14.69;31.79;93579.34;4960874;28;20042;-75
2022/03/29 10:45:15;;;;;;;11.23;4.95;;;;;;;14.76;31.28;93587.56;4982953;28;20054;-75
2022/03/29 10:47:42;;;;;;;8.15;4.95;;;;;;;14.82;32.08;93578.13;4951394;28;20490;-75
2022/03/29 10:50:10;;;;;;;12.95;5.47;;;;;;;14.95;31.44;93588.44;4966443;28;20062;-75
2022/03/29 10:52:40;;;;;;;8.18;4.38;;;;;;;15.10;32.09;93584.22;4967777;28;20137;-75
2022/03/29 10:55:18;;;;;;;13.73;5.78;;;;;;;14.86;31.40;93536.19;4963633;28;20054;-76
2022/03/29 10:58:07;;;;;;;7.65;5.68;;;;;;;15.24;31.01;93584.53;4984318;28;20146;-74
2022/03/29 11:00:38;;;;;;;10.05;4.85;;;;;;;15.47;31.06;93582.03;4965585;28;20034;-76
2022/03/29 11:03:07;;;;;;;9.48;6.60;;;;;;;15.35;31.47;93548.03;4984088;28;20378;-74
2022/03/29 11:05:32;;;;;;;12.48;5.15;;;;;;;15.50;31.14;93565.22;4965792;28;20054;-74
2022/03/29 11:08:11;;;;;;;9.43;4.13;;;;;;;15.17;29.63;93541.50;4965235;28;20038;-75
2022/03/29 11:10:44;;;;;;;10.88;4.82;;;;;;;15.35;30.80;93553.41;4967525;28;20121;-73
2022/03/29 11:13:26;;;;;;;7.85;4.43;;;;;;;15.24;30.34;93522.94;4979329;28;20058;-74
2022/03/29 11:15:52;;;;;;;7.32;4.50;;;;;;;15.36;30.42;93528.16;4966132;28;20046;-72
2022/03/29 11:18:33;;;;;;;11.52;4.32;;;;;;;15.53;29.72;93542.34;4965385;28;20389;-74
2022/03/29 11:21:02;;;;;;;6.13;4.18;;;;;;;15.35;29.49;93540.00;4963728;28;20086;-75
2022/03/29 11:23:41;;;;;;;9.38;4.40;;;;;;;14.97;30.16;93510.41;4964545;28;20043;-74
2022/03/29 11:26:14;;;;;;;8.15;3.53;;;;;;;15.28;31.16;93531.81;4966552;28;20619;-75
2022/03/29 11:28:51;;;;;;;9.35;4.15;;;;;;;15.28;30.41;93537.16;4964126;28;20042;-75
2022/03/29 11:31:18;;;;;;;7.90;3.58;;;;;;;15.05;29.54;93504.13;4978347;28;20605;-74
2022/03/29 11:33:49;;;;;;;13.63;3.88;;;;;;;15.42;29.83;93524.09;4967819;28;20043;-75
2022/03/29 11:36:15;;;;;;;6.15;3.60;;;;;;;15.54;30.96;93512.50;4964936;28;20393;-74
2022/03/29 11:38:41;;;;;;;10.18;4.30;;;;;;;15.48;30.59;93497.81;4964672;28;20058;-76